createdAt,value
2022-10-31T00:00:25.194Z,0.00
2022-10-31T00:01:25.129Z,0.00
2022-10-31T00:02:25.159Z,0.00
2022-10-31T00:03:25.121Z,0.00
2022-10-31T00:04:25.095Z,0.00
2022-10-31T00:05:25.100Z,0.00
2022-10-31T00:06:25.073Z,0.00
2022-10-31T00:07:25.072Z,0.00
2022-10-31T00:08:25.053Z,0.00
2022-10-31T00:09:25.059Z,0.00
2022-10-31T00:10:25.035Z,0.00
2022-10-31T00:11:25.012Z,0.00
2022-10-31T00:12:25.006Z,0.00
2022-10-31T00:13:24.998Z,0.00
2022-10-31T00:14:24.985Z,0.00
2022-10-31T00:15:25.051Z,0.00
2022-10-31T00:16:25.008Z,0.00
2022-10-31T00:17:24.948Z,0.00
2022-10-31T00:18:24.966Z,0.00
2022-10-31T00:19:24.931Z,0.00
2022-10-31T00:20:24.926Z,0.00
2022-10-31T00:21:24.913Z,0.00
2022-10-31T00:22:24.893Z,0.00
2022-10-31T00:23:24.882Z,0.00
2022-10-31T00:24:24.877Z,0.00
2022-10-31T00:25:24.878Z,0.00
2022-10-31T00:26:24.847Z,0.00
2022-10-31T00:27:24.843Z,0.00
2022-10-31T00:28:24.830Z,0.00
2022-10-31T00:29:24.810Z,0.00
2022-10-31T00:30:24.801Z,0.00
2022-10-31T00:31:24.817Z,0.00
2022-10-31T00:32:24.784Z,0.00
2022-10-31T00:33:24.780Z,0.00
2022-10-31T00:34:24.765Z,0.00
2022-10-31T00:35:24.743Z,0.00
2022-10-31T00:36:24.753Z,0.00
2022-10-31T00:37:24.744Z,0.00
2022-10-31T00:38:24.710Z,0.00
2022-10-31T00:39:24.715Z,0.00
2022-10-31T00:40:24.702Z,0.00
2022-10-31T00:41:24.703Z,0.00
2022-10-31T00:42:24.675Z,0.00
2022-10-31T00:43:24.675Z,0.00
2022-10-31T00:44:24.653Z,0.00
2022-10-31T00:45:24.663Z,0.00
2022-10-31T00:46:24.857Z,0.00
2022-10-31T00:47:24.646Z,0.00
2022-10-31T00:48:24.604Z,0.00
2022-10-31T00:49:24.623Z,0.00
2022-10-31T00:50:24.593Z,0.00
2022-10-31T00:51:24.585Z,0.00
2022-10-31T00:52:24.561Z,0.00
2022-10-31T00:53:24.560Z,0.00
2022-10-31T00:54:24.547Z,0.00
2022-10-31T00:55:24.534Z,0.00
2022-10-31T00:56:24.519Z,0.00
2022-10-31T00:57:24.523Z,0.00
2022-10-31T00:58:24.517Z,0.00
2022-10-31T00:59:24.506Z,0.00
2022-10-31T01:00:24.490Z,0.00
2022-10-31T01:01:24.548Z,0.00
2022-10-31T01:02:24.693Z,0.00
2022-10-31T01:03:24.471Z,0.00
2022-10-31T01:04:24.449Z,0.00
2022-10-31T01:05:24.422Z,0.00
2022-10-31T01:06:24.427Z,0.00
2022-10-31T01:07:24.404Z,0.00
2022-10-31T01:08:24.408Z,0.00
2022-10-31T01:09:24.389Z,0.00
2022-10-31T01:10:24.379Z,0.00
2022-10-31T01:11:24.387Z,0.00
2022-10-31T01:12:24.342Z,0.00
2022-10-31T01:13:24.336Z,0.00
2022-10-31T01:14:24.314Z,0.00
2022-10-31T01:15:24.331Z,0.00
2022-10-31T01:16:24.312Z,0.00
2022-10-31T01:17:24.354Z,0.00
2022-10-31T01:18:24.294Z,0.00
2022-10-31T01:19:24.276Z,0.00
2022-10-31T01:20:24.268Z,0.00
2022-10-31T01:21:24.265Z,0.00
2022-10-31T01:22:24.248Z,0.00
2022-10-31T01:23:24.224Z,0.00
2022-10-31T01:24:24.205Z,0.00
2022-10-31T01:25:24.208Z,0.00
2022-10-31T01:26:24.208Z,0.00
2022-10-31T01:27:24.194Z,0.00
2022-10-31T01:28:27.193Z,0.00
2022-10-31T01:29:24.177Z,0.00
2022-10-31T01:30:24.157Z,0.00
2022-10-31T01:31:24.146Z,0.00
2022-10-31T01:32:24.134Z,0.00
2022-10-31T01:33:24.126Z,0.00
2022-10-31T01:34:24.102Z,0.00
2022-10-31T01:35:24.093Z,0.00
2022-10-31T01:36:24.074Z,0.00
2022-10-31T01:37:24.106Z,0.00
2022-10-31T01:38:24.061Z,0.00
2022-10-31T01:39:24.062Z,0.00
2022-10-31T01:40:24.043Z,0.00
2022-10-31T01:41:24.038Z,0.00
2022-10-31T01:42:24.023Z,0.00
2022-10-31T01:43:24.017Z,0.00
2022-10-31T01:44:23.993Z,0.00
2022-10-31T01:45:23.995Z,0.00
2022-10-31T01:46:23.980Z,0.00
2022-10-31T01:47:23.968Z,0.00
2022-10-31T01:48:23.969Z,0.00
2022-10-31T01:49:23.948Z,0.00
2022-10-31T01:50:23.948Z,0.00
2022-10-31T01:51:23.926Z,0.00
2022-10-31T01:52:23.916Z,0.00
2022-10-31T01:53:26.820Z,0.00
2022-10-31T01:54:23.878Z,0.00
2022-10-31T01:55:26.410Z,0.00
2022-10-31T01:56:24.854Z,0.00
2022-10-31T01:57:23.866Z,0.00
2022-10-31T01:58:23.859Z,0.00
2022-10-31T01:59:23.836Z,0.00
2022-10-31T02:00:23.841Z,0.00
2022-10-31T02:01:23.920Z,0.00
2022-10-31T02:02:23.943Z,0.00
2022-10-31T02:03:23.778Z,0.00
2022-10-31T02:04:23.781Z,0.00
2022-10-31T02:05:23.773Z,0.00
2022-10-31T02:06:23.756Z,0.00
2022-10-31T02:07:23.749Z,0.00
2022-10-31T02:08:23.728Z,0.00
2022-10-31T02:09:23.721Z,0.00
2022-10-31T02:10:23.717Z,0.00
2022-10-31T02:11:23.703Z,0.00
2022-10-31T02:12:23.708Z,0.00
2022-10-31T02:13:23.692Z,0.00
2022-10-31T02:14:23.667Z,0.00
2022-10-31T02:15:23.659Z,0.00
2022-10-31T02:16:23.648Z,0.00
2022-10-31T02:17:24.577Z,0.00
2022-10-31T02:18:23.648Z,0.00
2022-10-31T02:19:23.616Z,0.00
2022-10-31T02:20:23.603Z,0.00
2022-10-31T02:21:23.578Z,0.00
2022-10-31T02:22:23.575Z,0.00
2022-10-31T02:23:23.561Z,0.00
2022-10-31T02:24:23.562Z,0.00
2022-10-31T02:25:23.577Z,0.00
2022-10-31T02:26:23.558Z,0.00
2022-10-31T02:27:23.540Z,0.00
2022-10-31T02:28:23.509Z,0.00
2022-10-31T02:29:23.496Z,0.00
2022-10-31T02:30:23.498Z,0.00
2022-10-31T02:31:23.490Z,0.00
2022-10-31T02:32:23.491Z,0.00
2022-10-31T02:33:23.462Z,0.00
2022-10-31T02:34:23.434Z,0.00
2022-10-31T02:35:23.440Z,0.00
2022-10-31T02:36:23.420Z,0.00
2022-10-31T02:37:23.416Z,0.00
2022-10-31T02:38:23.403Z,0.00
2022-10-31T02:39:23.388Z,0.00
2022-10-31T02:40:24.326Z,0.00
2022-10-31T02:41:23.360Z,0.00
2022-10-31T02:42:23.367Z,0.00
2022-10-31T02:43:23.349Z,0.00
2022-10-31T02:44:23.349Z,0.00
2022-10-31T02:45:23.326Z,0.00
2022-10-31T02:46:23.338Z,0.00
2022-10-31T02:47:23.313Z,0.00
2022-10-31T02:48:23.299Z,0.00
2022-10-31T02:49:23.490Z,0.00
2022-10-31T02:50:23.265Z,0.00
2022-10-31T02:51:23.261Z,0.00
2022-10-31T02:52:23.251Z,0.00
2022-10-31T02:53:23.246Z,0.00
2022-10-31T02:54:23.256Z,0.00
2022-10-31T02:55:23.214Z,0.00
2022-10-31T02:56:23.208Z,0.00
2022-10-31T02:57:23.203Z,0.00
2022-10-31T02:58:23.189Z,0.00
2022-10-31T02:59:23.179Z,0.00
2022-10-31T03:00:23.131Z,0.00
2022-10-31T03:01:23.266Z,0.00
2022-10-31T03:02:23.330Z,0.00
2022-10-31T03:03:23.138Z,0.00
2022-10-31T03:04:23.136Z,0.00
2022-10-31T03:05:23.113Z,0.00
2022-10-31T03:06:23.095Z,0.00
2022-10-31T03:07:23.079Z,0.00
2022-10-31T03:08:23.085Z,0.00
2022-10-31T03:09:23.052Z,0.00
2022-10-31T03:10:23.068Z,0.00
2022-10-31T03:11:23.049Z,0.00
2022-10-31T03:12:23.042Z,0.00
2022-10-31T03:14:23.018Z,0.00
2022-10-31T03:15:23.003Z,0.00
2022-10-31T03:16:23.005Z,0.00
2022-10-31T03:17:22.977Z,0.00
2022-10-31T03:18:22.961Z,0.00
2022-10-31T03:19:22.973Z,0.00
2022-10-31T03:20:22.959Z,0.00
2022-10-31T03:21:22.941Z,0.00
2022-10-31T03:22:22.923Z,0.00
2022-10-31T03:23:22.921Z,0.00
2022-10-31T03:24:22.904Z,0.00
2022-10-31T03:25:22.900Z,0.00
2022-10-31T03:26:22.887Z,0.00
2022-10-31T03:27:22.867Z,0.00
2022-10-31T03:28:22.860Z,0.00
2022-10-31T03:29:22.850Z,0.00
2022-10-31T03:30:22.841Z,0.00
2022-10-31T03:31:22.832Z,0.00
2022-10-31T03:32:22.828Z,0.00
2022-10-31T03:33:22.797Z,0.00
2022-10-31T03:34:22.784Z,0.00
2022-10-31T03:35:22.780Z,0.00
2022-10-31T03:36:22.771Z,0.00
2022-10-31T03:37:22.753Z,0.00
2022-10-31T03:38:22.768Z,0.00
2022-10-31T03:39:22.731Z,0.00
2022-10-31T03:40:22.732Z,0.00
2022-10-31T03:41:22.706Z,0.00
2022-10-31T03:42:22.708Z,0.00
2022-10-31T03:44:22.685Z,0.00
2022-10-31T03:45:22.682Z,0.00
2022-10-31T03:46:22.663Z,0.00
2022-10-31T03:47:22.640Z,0.00
2022-10-31T03:48:22.646Z,0.00
2022-10-31T03:49:22.636Z,0.00
2022-10-31T03:50:22.799Z,0.00
2022-10-31T03:51:22.610Z,0.00
2022-10-31T03:52:22.590Z,0.00
2022-10-31T03:53:22.582Z,0.00
2022-10-31T03:54:22.574Z,0.00
2022-10-31T03:55:22.568Z,0.00
2022-10-31T03:56:22.539Z,0.00
2022-10-31T03:57:22.545Z,0.00
2022-10-31T03:58:22.528Z,0.00
2022-10-31T03:59:22.512Z,0.00
2022-10-31T04:00:22.523Z,0.00
2022-10-31T04:01:22.584Z,0.00
2022-10-31T04:02:22.638Z,0.00
2022-10-31T04:03:22.482Z,0.00
2022-10-31T04:04:22.467Z,0.00
2022-10-31T04:05:22.452Z,0.00
2022-10-31T04:06:22.429Z,0.00
2022-10-31T04:07:31.201Z,0.00
2022-10-31T04:08:22.417Z,0.00
2022-10-31T04:09:22.425Z,0.00
2022-10-31T04:10:27.335Z,0.00
2022-10-31T04:11:23.405Z,0.00
2022-10-31T04:12:22.382Z,0.00
2022-10-31T04:13:22.424Z,0.00
2022-10-31T04:14:22.359Z,0.00
2022-10-31T04:15:22.354Z,0.00
2022-10-31T04:16:22.351Z,0.00
2022-10-31T04:17:22.317Z,0.00
2022-10-31T04:18:22.323Z,0.00
2022-10-31T04:19:22.306Z,0.00
2022-10-31T04:20:22.299Z,0.00
2022-10-31T04:21:22.397Z,0.00
2022-10-31T04:22:22.278Z,0.00
2022-10-31T04:23:22.254Z,0.00
2022-10-31T04:24:22.256Z,0.00
2022-10-31T04:25:22.251Z,0.00
2022-10-31T04:26:22.229Z,0.00
2022-10-31T04:27:22.208Z,0.00
2022-10-31T04:28:22.238Z,0.00
2022-10-31T04:29:22.190Z,0.00
2022-10-31T04:30:22.192Z,0.00
2022-10-31T04:31:22.174Z,0.00
2022-10-31T04:32:22.170Z,0.00
2022-10-31T04:33:22.166Z,0.00
2022-10-31T04:34:22.137Z,0.00
2022-10-31T04:35:22.132Z,0.00
2022-10-31T04:36:22.119Z,0.00
2022-10-31T04:37:22.101Z,0.00
2022-10-31T04:38:22.104Z,0.00
2022-10-31T04:39:25.764Z,0.00
2022-10-31T04:40:22.090Z,0.00
2022-10-31T04:41:22.062Z,0.00
2022-10-31T04:42:22.049Z,0.00
2022-10-31T04:43:22.071Z,0.00
2022-10-31T04:44:22.061Z,0.00
2022-10-31T04:45:22.018Z,0.00
2022-10-31T04:46:22.019Z,0.00
2022-10-31T04:47:21.985Z,0.00
2022-10-31T04:48:21.991Z,0.00
2022-10-31T04:49:21.969Z,0.00
2022-10-31T04:50:21.969Z,0.00
2022-10-31T04:51:22.163Z,0.00
2022-10-31T04:52:21.969Z,0.00
2022-10-31T04:53:21.917Z,0.00
2022-10-31T04:54:21.927Z,0.00
2022-10-31T04:55:21.903Z,0.00
2022-10-31T04:56:21.923Z,0.00
2022-10-31T04:57:21.916Z,0.00
2022-10-31T04:58:21.873Z,0.00
2022-10-31T04:59:21.857Z,0.00
2022-10-31T05:00:21.850Z,0.00
2022-10-31T05:01:21.951Z,0.00
2022-10-31T05:02:21.896Z,0.00
2022-10-31T05:03:21.818Z,0.00
2022-10-31T05:04:21.839Z,0.00
2022-10-31T05:05:21.800Z,0.00
2022-10-31T05:06:21.770Z,0.00
2022-10-31T05:07:21.781Z,0.00
2022-10-31T05:08:21.767Z,0.00
2022-10-31T05:09:21.759Z,0.00
2022-10-31T05:10:21.740Z,0.00
2022-10-31T05:11:21.717Z,0.00
2022-10-31T05:12:21.711Z,0.00
2022-10-31T05:14:21.881Z,0.00
2022-10-31T05:15:21.691Z,0.00
2022-10-31T05:16:21.676Z,0.00
2022-10-31T05:17:21.669Z,0.00
2022-10-31T05:18:21.648Z,0.00
2022-10-31T05:19:21.641Z,0.00
2022-10-31T05:20:21.645Z,0.00
2022-10-31T05:21:21.617Z,0.00
2022-10-31T05:22:21.615Z,0.00
2022-10-31T05:23:21.637Z,0.00
2022-10-31T05:24:21.594Z,0.00
2022-10-31T05:25:21.618Z,0.00
2022-10-31T05:26:21.590Z,0.00
2022-10-31T05:27:21.563Z,0.00
2022-10-31T05:28:21.534Z,0.00
2022-10-31T05:29:21.614Z,0.00
2022-10-31T05:30:21.522Z,0.00
2022-10-31T05:31:21.775Z,0.00
2022-10-31T05:32:21.510Z,0.00
2022-10-31T05:33:21.494Z,0.00
2022-10-31T05:34:21.492Z,0.00
2022-10-31T05:35:21.473Z,0.00
2022-10-31T05:36:21.498Z,0.00
2022-10-31T05:37:21.440Z,0.00
2022-10-31T05:38:21.449Z,0.00
2022-10-31T05:39:21.430Z,0.00
2022-10-31T05:40:21.413Z,0.00
2022-10-31T05:41:21.414Z,0.00
2022-10-31T05:42:21.447Z,0.00
2022-10-31T05:43:21.396Z,0.00
2022-10-31T05:44:21.382Z,0.00
2022-10-31T05:45:21.358Z,4.00
2022-10-31T05:46:21.434Z,4.00
2022-10-31T05:47:21.326Z,0.00
2022-10-31T05:48:21.338Z,4.00
2022-10-31T05:49:21.312Z,4.00
2022-10-31T05:50:21.316Z,4.00
2022-10-31T05:51:21.290Z,4.00
2022-10-31T05:52:21.992Z,4.00
2022-10-31T05:53:21.277Z,8.00
2022-10-31T05:54:21.359Z,8.00
2022-10-31T05:55:21.249Z,8.00
2022-10-31T05:56:21.240Z,8.00
2022-10-31T05:57:21.227Z,12.00
2022-10-31T05:58:21.224Z,16.00
2022-10-31T05:59:21.208Z,16.00
2022-10-31T06:00:21.195Z,20.00
2022-10-31T06:01:21.224Z,20.00
2022-10-31T06:02:21.172Z,28.00
2022-10-31T06:03:21.154Z,32.00
2022-10-31T06:04:21.181Z,36.00
2022-10-31T06:05:21.151Z,40.00
2022-10-31T06:06:21.132Z,48.00
2022-10-31T06:07:21.118Z,52.00
2022-10-31T06:08:21.123Z,68.00
2022-10-31T06:09:21.121Z,72.00
2022-10-31T06:10:21.099Z,84.00
2022-10-31T06:11:21.080Z,96.00
2022-10-31T06:12:21.087Z,112.00
2022-10-31T06:13:21.052Z,120.00
2022-10-31T06:14:21.051Z,132.00
2022-10-31T06:15:24.216Z,144.00
2022-10-31T06:16:21.033Z,156.00
2022-10-31T06:17:21.014Z,172.00
2022-10-31T06:18:21.019Z,184.00
2022-10-31T06:19:20.996Z,200.00
2022-10-31T06:20:20.983Z,212.00
2022-10-31T06:21:20.975Z,228.00
2022-10-31T06:22:20.949Z,244.00
2022-10-31T06:23:20.952Z,264.00
2022-10-31T06:24:20.927Z,284.00
2022-10-31T06:25:21.033Z,308.00
2022-10-31T06:26:21.003Z,332.00
2022-10-31T06:27:20.899Z,360.00
2022-10-31T06:28:20.890Z,384.00
2022-10-31T06:29:20.888Z,416.00
2022-10-31T06:30:20.885Z,444.00
2022-10-31T06:31:20.860Z,472.00
2022-10-31T06:32:20.857Z,500.00
2022-10-31T06:33:20.846Z,532.00
2022-10-31T06:34:20.827Z,564.00
2022-10-31T06:35:20.899Z,604.00
2022-10-31T06:36:20.846Z,652.00
2022-10-31T06:37:20.801Z,700.00
2022-10-31T06:38:20.788Z,748.00
2022-10-31T06:39:20.791Z,800.00
2022-10-31T06:40:20.754Z,844.00
2022-10-31T06:41:20.752Z,892.00
2022-10-31T06:42:20.736Z,940.00
2022-10-31T06:43:20.742Z,1008.00
2022-10-31T06:44:20.730Z,1060.00
2022-10-31T06:45:20.831Z,1116.00
2022-10-31T06:46:20.696Z,1176.00
2022-10-31T06:47:20.684Z,1252.00
2022-10-31T06:48:21.076Z,1312.00
2022-10-31T06:49:20.658Z,1396.00
2022-10-31T06:50:20.653Z,1516.00
2022-10-31T06:51:20.632Z,1580.00
2022-10-31T06:52:20.637Z,1648.00
2022-10-31T06:53:20.610Z,1732.00
2022-10-31T06:54:20.599Z,1800.00
2022-10-31T06:55:20.600Z,1856.00
2022-10-31T06:56:20.817Z,1928.00
2022-10-31T06:57:20.583Z,1988.00
2022-10-31T06:58:20.578Z,2052.00
2022-10-31T06:59:20.552Z,2116.00
2022-10-31T07:00:20.552Z,2140.00
2022-10-31T07:01:20.596Z,2156.00
2022-10-31T07:02:20.566Z,2192.00
2022-10-31T07:03:20.509Z,2264.00
2022-10-31T07:04:20.515Z,2324.00
2022-10-31T07:05:20.496Z,2400.00
2022-10-31T07:06:20.484Z,2456.00
2022-10-31T07:07:20.470Z,2476.00
2022-10-31T07:08:20.450Z,2492.00
2022-10-31T07:09:20.446Z,2548.00
2022-10-31T07:10:20.427Z,2684.00
2022-10-31T07:11:20.443Z,2808.00
2022-10-31T07:12:20.411Z,2912.00
2022-10-31T07:13:20.401Z,2972.00
2022-10-31T07:14:20.397Z,3028.00
2022-10-31T07:15:20.394Z,2960.00
2022-10-31T07:16:20.430Z,2960.00
2022-10-31T07:17:20.360Z,2956.00
2022-10-31T07:18:20.351Z,2944.00
2022-10-31T07:19:20.337Z,2940.00
2022-10-31T07:20:20.334Z,2924.00
2022-10-31T07:21:20.327Z,2920.00
2022-10-31T07:22:20.306Z,2932.00
2022-10-31T07:23:20.287Z,3012.00
2022-10-31T07:24:20.279Z,2960.00
2022-10-31T07:25:20.280Z,2968.00
2022-10-31T07:26:20.269Z,2988.00
2022-10-31T07:27:20.342Z,2980.00
2022-10-31T07:28:20.238Z,3028.00
2022-10-31T07:29:20.267Z,3100.00
2022-10-31T07:30:20.199Z,3224.00
2022-10-31T07:31:20.211Z,3412.00
2022-10-31T07:32:20.196Z,3524.00
2022-10-31T07:33:20.177Z,3500.00
2022-10-31T07:34:20.169Z,3612.00
2022-10-31T07:35:20.184Z,3708.00
2022-10-31T07:36:20.146Z,3832.00
2022-10-31T07:37:20.131Z,3972.00
2022-10-31T07:38:20.119Z,4244.00
2022-10-31T07:39:20.181Z,4488.00
2022-10-31T07:40:20.095Z,4728.00
2022-10-31T07:41:20.087Z,4880.00
2022-10-31T07:42:20.103Z,5032.00
2022-10-31T07:43:20.078Z,5244.00
2022-10-31T07:44:20.056Z,5464.00
2022-10-31T07:45:20.055Z,5772.00
2022-10-31T07:46:20.027Z,5820.00
2022-10-31T07:47:20.029Z,5612.00
2022-10-31T07:48:20.040Z,5072.00
2022-10-31T07:49:20.023Z,4832.00
2022-10-31T07:50:19.997Z,4820.00
2022-10-31T07:51:19.987Z,4860.00
2022-10-31T07:52:19.973Z,4932.00
2022-10-31T07:53:19.990Z,5272.00
2022-10-31T07:54:19.951Z,5544.00
2022-10-31T07:55:20.014Z,5852.00
2022-10-31T07:56:19.917Z,6224.00
2022-10-31T07:57:24.152Z,5948.00
2022-10-31T07:58:21.046Z,6396.00
2022-10-31T07:59:19.891Z,5940.00
2022-10-31T08:00:19.973Z,6032.00
2022-10-31T08:01:19.924Z,6080.00
2022-10-31T08:02:19.903Z,5356.00
2022-10-31T08:03:19.894Z,5528.00
2022-10-31T08:04:19.857Z,5852.00
2022-10-31T08:05:19.875Z,5568.00
2022-10-31T08:06:19.975Z,4828.00
2022-10-31T08:07:19.867Z,4788.00
2022-10-31T08:08:19.792Z,4732.00
2022-10-31T08:09:19.803Z,4656.00
2022-10-31T08:10:19.781Z,4692.00
2022-10-31T08:11:19.770Z,5268.00
2022-10-31T08:12:19.780Z,6780.00
2022-10-31T08:13:19.753Z,7376.00
2022-10-31T08:14:19.749Z,7188.00
2022-10-31T08:15:19.743Z,7024.00
2022-10-31T08:16:19.764Z,7460.00
2022-10-31T08:17:19.717Z,7308.00
2022-10-31T08:18:19.747Z,6872.00
2022-10-31T08:19:19.678Z,7072.00
2022-10-31T08:20:19.679Z,6760.00
2022-10-31T08:21:19.652Z,6600.00
2022-10-31T08:22:19.648Z,6832.00
2022-10-31T08:23:19.749Z,6680.00
2022-10-31T08:24:19.736Z,6644.00
2022-10-31T08:25:19.644Z,6396.00
2022-10-31T08:26:19.603Z,6168.00
2022-10-31T08:27:19.652Z,5988.00
2022-10-31T08:28:19.578Z,6004.00
2022-10-31T08:29:19.605Z,6272.00
2022-10-31T08:30:19.561Z,6248.00
2022-10-31T08:31:19.576Z,6644.00
2022-10-31T08:32:19.528Z,6496.00
2022-10-31T08:33:19.546Z,6356.00
2022-10-31T08:34:19.505Z,6400.00
2022-10-31T08:35:19.553Z,6412.00
2022-10-31T08:36:19.525Z,6252.00
2022-10-31T08:37:19.910Z,6496.00
2022-10-31T08:38:19.486Z,6588.00
2022-10-31T08:39:19.521Z,6564.00
2022-10-31T08:40:19.548Z,6492.00
2022-10-31T08:41:19.463Z,6444.00
2022-10-31T08:42:19.424Z,6616.00
2022-10-31T08:43:19.448Z,6692.00
2022-10-31T08:44:19.400Z,6928.00
2022-10-31T08:45:19.424Z,6872.00
2022-10-31T08:46:19.554Z,6684.00
2022-10-31T08:47:19.376Z,6456.00
2022-10-31T08:48:19.350Z,6628.00
2022-10-31T08:49:19.422Z,6760.00
2022-10-31T08:50:19.330Z,6992.00
2022-10-31T08:51:19.345Z,7160.00
2022-10-31T08:52:19.350Z,7208.00
2022-10-31T08:53:19.313Z,7516.00
2022-10-31T08:54:19.319Z,7676.00
2022-10-31T08:55:19.308Z,7948.00
2022-10-31T08:56:19.371Z,8388.00
2022-10-31T08:57:19.276Z,8920.00
2022-10-31T08:58:19.439Z,9212.00
2022-10-31T08:59:19.266Z,9584.00
2022-10-31T09:00:19.528Z,10056.00
2022-10-31T09:01:19.487Z,10384.00
2022-10-31T09:02:19.251Z,10476.00
2022-10-31T09:03:19.207Z,10540.00
2022-10-31T09:04:19.183Z,10464.00
2022-10-31T09:05:19.169Z,10428.00
2022-10-31T09:06:19.220Z,9744.00
2022-10-31T09:07:21.258Z,10432.00
2022-10-31T09:08:19.151Z,11128.00
2022-10-31T09:09:19.124Z,11536.00
2022-10-31T09:10:19.214Z,11824.00
2022-10-31T09:11:19.106Z,12156.00
2022-10-31T09:12:19.104Z,12400.00
2022-10-31T09:13:19.325Z,12652.00
2022-10-31T09:14:19.116Z,12460.00
2022-10-31T09:15:19.065Z,12992.00
2022-10-31T09:16:19.046Z,13140.00
2022-10-31T09:17:19.046Z,13228.00
2022-10-31T09:18:19.125Z,13152.00
2022-10-31T09:19:19.022Z,12956.00
2022-10-31T09:20:19.011Z,13020.00
2022-10-31T09:21:19.019Z,13172.00
2022-10-31T09:22:19.212Z,12476.00
2022-10-31T09:23:18.989Z,13376.00
2022-10-31T09:24:18.970Z,13604.00
2022-10-31T09:25:19.193Z,12944.00
2022-10-31T09:26:18.999Z,12248.00
2022-10-31T09:27:18.949Z,10400.00
2022-10-31T09:28:18.920Z,9408.00
2022-10-31T09:29:18.905Z,9436.00
2022-10-31T09:30:18.952Z,9144.00
2022-10-31T09:31:19.869Z,8932.00
2022-10-31T09:32:18.883Z,9052.00
2022-10-31T09:33:18.864Z,9104.00
2022-10-31T09:34:18.934Z,9196.00
2022-10-31T09:35:21.694Z,9260.00
2022-10-31T09:36:19.952Z,9376.00
2022-10-31T09:37:18.855Z,9476.00
2022-10-31T09:38:18.902Z,9532.00
2022-10-31T09:39:18.809Z,9584.00
2022-10-31T09:40:18.797Z,9684.00
2022-10-31T09:41:18.825Z,9992.00
2022-10-31T09:42:18.786Z,10108.00
2022-10-31T09:43:18.760Z,10352.00
2022-10-31T09:44:18.748Z,10144.00
2022-10-31T09:45:18.788Z,10504.00
2022-10-31T09:46:18.735Z,10100.00
2022-10-31T09:47:18.725Z,10160.00
2022-10-31T09:48:18.738Z,10344.00
2022-10-31T09:49:18.795Z,10240.00
2022-10-31T09:50:18.678Z,10572.00
2022-10-31T09:51:18.665Z,10460.00
2022-10-31T09:52:18.662Z,10480.00
2022-10-31T09:53:18.647Z,11340.00
2022-10-31T09:54:18.638Z,11532.00
2022-10-31T09:55:18.640Z,11232.00
2022-10-31T09:56:18.625Z,11200.00
2022-10-31T09:57:18.600Z,11500.00
2022-10-31T09:58:18.703Z,12372.00
2022-10-31T09:59:18.584Z,14436.00
2022-10-31T10:00:18.582Z,14644.00
2022-10-31T10:01:18.933Z,14780.00
2022-10-31T10:02:18.588Z,14880.00
2022-10-31T10:03:18.544Z,16576.00
2022-10-31T10:04:20.850Z,19680.00
2022-10-31T10:05:18.516Z,20256.00
2022-10-31T10:06:18.532Z,20416.00
2022-10-31T10:07:18.497Z,22144.00
2022-10-31T10:08:25.504Z,23168.00
2022-10-31T10:10:21.272Z,25568.00
2022-10-31T10:11:18.462Z,24896.00
2022-10-31T10:12:18.457Z,25376.00
2022-10-31T10:13:18.432Z,26848.00
2022-10-31T10:14:18.461Z,26944.00
2022-10-31T10:15:18.436Z,26656.00
2022-10-31T10:16:18.412Z,26656.00
2022-10-31T10:17:18.389Z,27200.00
2022-10-31T10:18:18.380Z,26368.00
2022-10-31T10:19:18.358Z,24640.00
2022-10-31T10:20:20.645Z,26816.00
2022-10-31T10:21:18.354Z,24704.00
2022-10-31T10:22:18.325Z,20352.00
2022-10-31T10:23:18.317Z,19200.00
2022-10-31T10:24:18.297Z,28256.00
2022-10-31T10:25:18.308Z,17952.00
2022-10-31T10:26:18.357Z,17184.00
2022-10-31T10:27:20.763Z,16736.00
2022-10-31T10:28:19.271Z,16192.00
2022-10-31T10:29:18.626Z,17152.00
2022-10-31T10:30:18.239Z,17312.00
2022-10-31T10:31:18.251Z,17888.00
2022-10-31T10:32:18.256Z,23488.00
2022-10-31T10:33:18.233Z,23936.00
2022-10-31T10:34:18.207Z,27840.00
2022-10-31T10:35:18.185Z,32832.00
2022-10-31T10:36:18.169Z,23552.00
2022-10-31T10:37:18.168Z,21792.00
2022-10-31T10:38:18.158Z,22304.00
2022-10-31T10:39:18.491Z,22144.00
2022-10-31T10:40:18.155Z,21536.00
2022-10-31T10:41:18.115Z,19168.00
2022-10-31T10:42:18.106Z,19648.00
2022-10-31T10:43:18.096Z,21024.00
2022-10-31T10:44:18.080Z,22880.00
2022-10-31T10:45:18.073Z,21920.00
2022-10-31T10:46:18.068Z,19776.00
2022-10-31T10:47:18.046Z,18304.00
2022-10-31T10:48:18.057Z,18208.00
2022-10-31T10:49:18.040Z,18496.00
2022-10-31T10:50:18.047Z,19360.00
2022-10-31T10:51:31.976Z,21024.00
2022-10-31T10:52:39.730Z,29664.00
2022-10-31T10:53:18.986Z,22944.00
2022-10-31T10:54:17.994Z,20704.00
2022-10-31T10:55:17.969Z,20896.00
2022-10-31T10:56:17.962Z,21728.00
2022-10-31T10:57:17.942Z,22656.00
2022-10-31T10:58:17.933Z,25344.00
2022-10-31T10:59:17.992Z,25376.00
2022-10-31T11:00:17.952Z,24288.00
2022-10-31T11:01:17.917Z,24320.00
2022-10-31T11:02:17.887Z,22208.00
2022-10-31T11:03:18.448Z,20960.00
2022-10-31T11:04:17.880Z,21472.00
2022-10-31T11:05:17.857Z,20896.00
2022-10-31T11:06:17.869Z,21152.00
2022-10-31T11:07:17.839Z,21056.00
2022-10-31T11:08:17.825Z,19200.00
2022-10-31T11:09:17.827Z,19648.00
2022-10-31T11:10:17.822Z,20064.00
2022-10-31T11:11:17.793Z,20480.00
2022-10-31T11:12:17.778Z,22080.00
2022-10-31T11:13:17.776Z,24640.00
2022-10-31T11:14:17.769Z,29408.00
2022-10-31T11:15:17.747Z,33888.00
2022-10-31T11:16:17.774Z,32736.00
2022-10-31T11:17:17.718Z,38912.00
2022-10-31T11:18:17.730Z,30976.00
2022-10-31T11:19:17.722Z,25920.00
2022-10-31T11:20:19.079Z,24800.00
2022-10-31T11:21:17.683Z,23520.00
2022-10-31T11:22:17.676Z,24256.00
2022-10-31T11:23:17.659Z,27136.00
2022-10-31T11:24:17.657Z,28224.00
2022-10-31T11:25:17.653Z,32704.00
2022-10-31T11:26:17.634Z,31904.00
2022-10-31T11:27:17.625Z,32320.00
2022-10-31T11:28:17.602Z,37248.00
2022-10-31T11:29:17.583Z,42976.00
2022-10-31T11:30:17.674Z,38912.00
2022-10-31T11:31:18.517Z,48384.00
2022-10-31T11:32:17.570Z,51520.00
2022-10-31T11:33:17.562Z,50112.00
2022-10-31T11:34:17.583Z,53696.00
2022-10-31T11:35:17.526Z,43200.00
2022-10-31T11:36:17.531Z,38592.00
2022-10-31T11:37:17.528Z,34592.00
2022-10-31T11:38:17.494Z,40992.00
2022-10-31T11:39:17.485Z,49312.00
2022-10-31T11:40:17.484Z,48320.00
2022-10-31T11:41:17.467Z,45504.00
2022-10-31T11:42:17.457Z,41440.00
2022-10-31T11:43:17.443Z,34912.00
2022-10-31T11:44:17.448Z,32768.00
2022-10-31T11:45:17.853Z,32288.00
2022-10-31T11:46:17.407Z,31520.00
2022-10-31T11:47:17.397Z,40544.00
2022-10-31T11:48:17.396Z,39648.00
2022-10-31T11:49:17.390Z,36000.00
2022-10-31T11:50:17.360Z,41088.00
2022-10-31T11:51:17.351Z,39360.00
2022-10-31T11:52:17.353Z,34720.00
2022-10-31T11:53:17.340Z,44416.00
2022-10-31T11:54:17.319Z,45632.00
2022-10-31T11:55:17.318Z,42528.00
2022-10-31T11:56:17.303Z,38208.00
2022-10-31T11:57:17.303Z,34144.00
2022-10-31T11:58:17.269Z,29344.00
2022-10-31T11:59:17.265Z,25984.00
2022-10-31T12:00:17.429Z,24416.00
2022-10-31T12:01:17.285Z,21536.00
2022-10-31T12:02:17.856Z,18944.00
2022-10-31T12:03:17.235Z,16928.00
2022-10-31T12:04:17.210Z,16192.00
2022-10-31T12:05:18.331Z,15808.00
2022-10-31T12:06:17.204Z,16000.00
2022-10-31T12:07:17.198Z,15808.00
2022-10-31T12:08:17.271Z,15140.00
2022-10-31T12:09:17.156Z,14280.00
2022-10-31T12:10:17.162Z,13576.00
2022-10-31T12:11:17.137Z,13620.00
2022-10-31T12:12:17.125Z,13448.00
2022-10-31T12:13:17.120Z,13932.00
2022-10-31T12:14:17.108Z,13440.00
2022-10-31T12:15:17.092Z,13980.00
2022-10-31T12:16:17.560Z,14120.00
2022-10-31T12:17:17.080Z,15936.00
2022-10-31T12:18:17.091Z,17408.00
2022-10-31T12:19:17.072Z,18752.00
2022-10-31T12:20:17.039Z,19392.00
2022-10-31T12:21:17.027Z,19264.00
2022-10-31T12:22:17.203Z,20224.00
2022-10-31T12:23:17.016Z,19904.00
2022-10-31T12:24:16.996Z,20576.00
2022-10-31T12:25:16.985Z,20448.00
2022-10-31T12:26:16.970Z,19360.00
2022-10-31T12:27:16.991Z,18976.00
2022-10-31T12:28:17.489Z,18656.00
2022-10-31T12:29:16.938Z,18240.00
2022-10-31T12:30:16.924Z,18656.00
2022-10-31T12:31:16.936Z,18880.00
2022-10-31T12:32:16.912Z,18496.00
2022-10-31T12:33:16.899Z,18400.00
2022-10-31T12:34:17.091Z,18752.00
2022-10-31T12:35:16.887Z,20384.00
2022-10-31T12:36:17.149Z,21824.00
2022-10-31T12:37:16.858Z,23488.00